createdAt,value
2019-06-20T00:01:43.014Z,6.20
2019-06-20T00:04:17.600Z,6.45
2019-06-20T00:06:52.019Z,6.08
2019-06-20T00:09:26.472Z,6.15
2019-06-20T00:12:00.966Z,6.08
2019-06-20T00:14:35.503Z,6.10
2019-06-20T00:17:10.003Z,5.97
2019-06-20T00:19:45.526Z,5.85
2019-06-20T00:22:20.077Z,6.28
2019-06-20T00:24:54.537Z,5.87
2019-06-20T00:27:28.946Z,6.10
2019-06-20T00:30:03.558Z,7.10
2019-06-20T00:32:39.249Z,7.03
2019-06-20T00:35:14.046Z,6.60
2019-06-20T00:37:48.526Z,6.42
2019-06-20T00:40:23.128Z,6.97
2019-06-20T00:42:58.871Z,6.47
2019-06-20T00:45:33.317Z,6.75
2019-06-20T00:48:07.888Z,7.25
2019-06-20T00:50:42.350Z,6.95
2019-06-20T00:53:16.845Z,7.15
2019-06-20T00:55:51.439Z,6.70
2019-06-20T00:58:25.934Z,7.60
2019-06-20T01:01:00.401Z,7.67
2019-06-20T01:03:34.836Z,7.17
2019-06-20T01:06:09.486Z,7.20
2019-06-20T01:08:43.981Z,7.33
2019-06-20T01:11:18.502Z,6.95
2019-06-20T01:13:53.103Z,7.85
2019-06-20T01:16:27.517Z,6.80
2019-06-20T01:19:01.951Z,7.15
2019-06-20T01:21:36.408Z,7.28
2019-06-20T01:24:10.900Z,7.85
2019-06-20T01:26:45.356Z,8.15
2019-06-20T01:29:19.772Z,7.40
2019-06-20T01:31:54.274Z,7.47
2019-06-20T01:34:28.768Z,8.45
2019-06-20T01:37:03.299Z,7.92
2019-06-20T01:39:38.801Z,7.72
2019-06-20T01:42:13.399Z,7.97
2019-06-20T01:44:47.966Z,8.53
2019-06-20T01:47:22.504Z,8.45
2019-06-20T01:49:57.021Z,7.40
2019-06-20T01:52:31.538Z,9.03
2019-06-20T01:55:06.184Z,7.80
2019-06-20T01:57:40.707Z,8.23
2019-06-20T02:00:27.320Z,8.18
2019-06-20T02:03:02.076Z,7.85
2019-06-20T02:05:36.761Z,8.43
2019-06-20T02:08:11.481Z,8.50
2019-06-20T02:10:46.098Z,8.83
2019-06-20T02:13:21.882Z,8.30
2019-06-20T02:15:56.345Z,8.20
2019-06-20T02:18:30.811Z,8.20
2019-06-20T02:21:06.866Z,8.30
2019-06-20T02:23:43.076Z,7.65
2019-06-20T02:26:17.536Z,8.18
2019-06-20T02:28:51.994Z,7.45
2019-06-20T02:31:26.503Z,7.75
2019-06-20T02:34:00.956Z,7.47
2019-06-20T02:36:35.462Z,7.45
2019-06-20T02:39:09.896Z,7.35
2019-06-20T02:41:44.325Z,6.83
2019-06-20T02:44:30.024Z,7.47
2019-06-20T02:46:55.053Z,7.47
2019-06-20T02:49:29.489Z,7.22
2019-06-20T02:52:04.260Z,6.80
2019-06-20T02:54:38.955Z,6.75
2019-06-20T02:57:13.442Z,6.35
2019-06-20T02:59:47.991Z,6.47
2019-06-20T03:02:22.408Z,6.87
2019-06-20T03:04:56.935Z,6.78
2019-06-20T03:07:31.421Z,6.70
2019-06-20T03:10:10.183Z,6.75
2019-06-20T03:12:44.697Z,7.03
2019-06-20T03:15:19.308Z,7.10
2019-06-20T03:17:53.846Z,7.08
2019-06-20T03:20:28.382Z,6.10
2019-06-20T03:23:03.003Z,6.65
2019-06-20T03:25:37.525Z,6.58
2019-06-20T03:28:12.008Z,6.90
2019-06-20T03:30:46.771Z,6.70
2019-06-20T03:33:21.314Z,6.37
2019-06-20T03:35:55.754Z,6.28
2019-06-20T03:38:30.173Z,6.90
2019-06-20T03:41:04.761Z,6.30
2019-06-20T03:43:39.189Z,6.80
2019-06-20T03:46:14.866Z,5.90
2019-06-20T03:48:49.436Z,7.30
2019-06-20T03:51:23.875Z,6.30
2019-06-20T03:53:58.293Z,6.35
2019-06-20T03:56:32.756Z,6.90
2019-06-20T03:59:07.236Z,5.90
2019-06-20T04:01:41.761Z,6.22
2019-06-20T04:04:17.853Z,6.42
2019-06-20T04:06:52.445Z,6.97
2019-06-20T04:09:26.945Z,6.75
2019-06-20T04:12:01.424Z,7.17
2019-06-20T04:14:35.840Z,7.22
2019-06-20T04:17:10.363Z,7.47
2019-06-20T04:19:44.794Z,6.72
2019-06-20T04:22:19.329Z,7.10
2019-06-20T04:24:53.838Z,7.35
2019-06-20T04:27:28.349Z,7.20
2019-06-20T04:30:02.913Z,6.72
2019-06-20T04:32:37.466Z,6.80
2019-06-20T04:35:12.027Z,7.65
2019-06-20T04:37:46.462Z,7.28
2019-06-20T04:40:21.204Z,7.92
2019-06-20T04:42:55.651Z,6.87
2019-06-20T04:45:35.484Z,7.10
2019-06-20T04:48:09.590Z,9.40
2019-06-20T04:50:44.140Z,6.78
2019-06-20T04:53:19.740Z,7.45
2019-06-20T04:55:54.337Z,6.55
2019-06-20T04:58:28.734Z,6.78
2019-06-20T05:01:03.294Z,6.22
2019-06-20T05:03:37.963Z,6.25
2019-06-20T05:06:12.367Z,6.33
2019-06-20T05:08:46.833Z,6.85
2019-06-20T05:12:22.390Z,6.20
2019-06-20T05:14:24.042Z,6.28
2019-06-20T05:16:58.462Z,6.85
2019-06-20T05:19:34.138Z,6.55
2019-06-20T05:22:08.611Z,6.42
2019-06-20T05:24:43.151Z,6.37
2019-06-20T05:27:18.132Z,6.97
2019-06-20T05:29:52.667Z,6.20
2019-06-20T05:32:27.268Z,6.50
2019-06-20T05:35:03.113Z,6.70
2019-06-20T05:37:37.872Z,6.75
2019-06-20T05:40:13.985Z,6.08
2019-06-20T05:42:48.460Z,5.80
2019-06-20T05:45:23.223Z,5.83
2019-06-20T05:47:57.868Z,6.80
2019-06-20T05:50:33.439Z,5.92
2019-06-20T05:53:07.922Z,5.87
2019-06-20T05:55:42.390Z,7.55
2019-06-20T05:58:16.825Z,6.42
2019-06-20T06:00:51.489Z,6.55
2019-06-20T06:03:25.901Z,6.70
2019-06-20T06:06:00.348Z,7.10
2019-06-20T06:08:34.834Z,6.80
2019-06-20T06:11:09.345Z,7.45
2019-06-20T06:13:43.851Z,7.40
2019-06-20T06:16:26.131Z,9.83
2019-06-20T06:18:55.080Z,7.78
2019-06-20T06:21:29.784Z,8.03
2019-06-20T06:24:04.504Z,7.55
2019-06-20T06:26:38.939Z,8.83
2019-06-20T06:29:13.450Z,8.63
2019-06-20T06:31:47.958Z,7.75
2019-06-20T06:34:25.171Z,8.58
2019-06-20T06:36:59.678Z,7.83
2019-06-20T06:39:35.210Z,8.93
2019-06-20T06:42:09.622Z,8.10
2019-06-20T06:44:45.788Z,8.35
2019-06-20T06:47:20.291Z,6.97
2019-06-20T06:49:54.773Z,7.83
2019-06-20T06:52:29.217Z,9.48
2019-06-20T06:55:04.201Z,9.08
2019-06-20T06:57:38.770Z,9.40
2019-06-20T07:00:15.365Z,9.25
2019-06-20T07:02:49.788Z,10.35
2019-06-20T07:05:24.383Z,11.18
2019-06-20T07:07:58.895Z,10.78
2019-06-20T07:10:33.578Z,11.12
2019-06-20T07:13:08.070Z,10.75
2019-06-20T07:15:42.685Z,11.43
2019-06-20T07:18:17.335Z,11.73
2019-06-20T07:20:51.787Z,12.23
2019-06-20T07:23:26.286Z,14.93
2019-06-20T07:26:03.979Z,15.00
2019-06-20T07:28:38.553Z,15.30
2019-06-20T07:31:13.012Z,19.32
2019-06-20T07:33:47.525Z,26.12
2019-06-20T07:36:22.053Z,27.60
2019-06-20T07:38:56.479Z,26.40
2019-06-20T07:41:31.103Z,27.13
2019-06-20T07:44:05.653Z,26.00
2019-06-20T07:46:40.127Z,28.38
2019-06-20T07:49:14.644Z,27.35
2019-06-20T07:51:56.823Z,27.42
2019-06-20T07:54:34.626Z,27.58
2019-06-20T07:57:10.793Z,27.35
2019-06-20T07:59:45.225Z,27.07
2019-06-20T08:02:19.753Z,28.70
2019-06-20T08:04:54.341Z,28.95
2019-06-20T08:07:28.855Z,29.90
2019-06-20T08:10:12.983Z,29.02
2019-06-20T08:12:47.499Z,31.48
2019-06-20T08:15:24.049Z,32.83
2019-06-20T08:17:58.530Z,31.65
2019-06-20T08:20:33.101Z,30.30
2019-06-20T08:23:08.731Z,30.08
2019-06-20T08:25:43.305Z,28.65
2019-06-20T08:28:17.774Z,29.42
2019-06-20T08:30:52.394Z,29.80
2019-06-20T08:33:26.929Z,28.60
2019-06-20T08:36:02.245Z,28.30
2019-06-20T08:38:37.284Z,27.87
2019-06-20T08:41:11.721Z,27.35
2019-06-20T08:43:46.185Z,26.80
2019-06-20T08:46:20.762Z,26.40
2019-06-20T08:48:56.599Z,25.27
2019-06-20T08:51:31.497Z,25.80
2019-06-20T08:54:06.184Z,23.30
2019-06-20T08:56:40.756Z,22.87
2019-06-20T08:59:24.352Z,23.95
2019-06-20T09:01:51.572Z,22.17
2019-06-20T09:04:26.023Z,21.45
2019-06-20T09:07:00.698Z,21.48
2019-06-20T09:09:35.687Z,21.15
2019-06-20T09:12:10.178Z,22.35
2019-06-20T09:14:44.657Z,21.87
2019-06-20T09:17:19.109Z,19.98
2019-06-20T09:19:54.408Z,21.37
2019-06-20T09:22:28.971Z,21.57
2019-06-20T09:25:04.786Z,20.23
2019-06-20T09:30:46.740Z,17.45
2019-06-20T09:33:21.316Z,15.50
2019-06-20T09:35:57.383Z,16.77
2019-06-20T09:38:32.928Z,16.73
2019-06-20T09:41:07.781Z,17.87
2019-06-20T09:43:43.387Z,18.77
2019-06-20T09:46:17.856Z,17.70
2019-06-20T09:48:53.920Z,17.40
2019-06-20T09:51:28.411Z,17.70
2019-06-20T09:54:02.931Z,15.63
2019-06-20T09:56:37.550Z,13.05
2019-06-20T09:59:26.907Z,12.68
2019-06-20T10:01:50.043Z,13.75
2019-06-20T10:04:24.398Z,13.50
2019-06-20T10:06:58.926Z,13.93
2019-06-20T10:09:33.449Z,12.43
2019-06-20T10:12:07.963Z,10.75
2019-06-20T10:14:42.489Z,11.10
2019-06-20T10:17:17.184Z,11.48
2019-06-20T10:19:52.084Z,11.38
2019-06-20T10:22:26.830Z,11.97
2019-06-20T10:25:01.338Z,10.65
2019-06-20T10:27:36.287Z,10.78
2019-06-20T10:30:14.614Z,11.25
2019-06-20T10:32:50.993Z,9.80
2019-06-20T10:35:25.776Z,9.90
2019-06-20T10:38:00.269Z,9.45
2019-06-20T10:40:34.788Z,9.45
2019-06-20T10:43:09.313Z,8.48
2019-06-20T10:45:44.667Z,7.90
2019-06-20T10:48:20.277Z,8.58
2019-06-20T10:50:56.425Z,7.87
2019-06-20T10:53:30.950Z,8.03
2019-06-20T10:56:05.499Z,8.25
2019-06-20T10:58:41.461Z,7.62
2019-06-20T11:01:16.318Z,10.53
2019-06-20T11:03:50.958Z,9.55
2019-06-20T11:06:25.449Z,12.30
2019-06-20T11:08:59.992Z,12.15
2019-06-20T11:11:34.490Z,14.20
2019-06-20T11:14:09.920Z,15.78
2019-06-20T11:16:45.230Z,15.93
2019-06-20T11:19:19.929Z,15.85
2019-06-20T11:21:54.354Z,15.90
2019-06-20T11:24:28.832Z,15.10
2019-06-20T11:27:03.401Z,14.35
2019-06-20T11:29:38.025Z,14.10
2019-06-20T11:32:12.536Z,12.78
2019-06-20T11:34:47.544Z,13.55
2019-06-20T11:37:22.466Z,13.38
2019-06-20T11:39:57.062Z,13.45
2019-06-20T11:42:31.562Z,13.30
2019-06-20T11:45:08.162Z,15.40
2019-06-20T11:47:43.727Z,15.18
2019-06-20T11:50:18.555Z,14.70
2019-06-20T11:52:53.008Z,14.75
2019-06-20T11:55:27.625Z,12.37
2019-06-20T11:58:02.134Z,11.22
2019-06-20T12:00:36.641Z,11.12
2019-06-20T12:03:11.159Z,12.93
2019-06-20T12:05:47.266Z,13.78
2019-06-20T12:08:21.862Z,12.30
2019-06-20T12:10:56.366Z,12.40
2019-06-20T12:13:30.769Z,11.80
2019-06-20T12:16:05.579Z,11.25
2019-06-20T12:18:41.487Z,10.70
2019-06-20T12:21:16.295Z,12.20
2019-06-20T12:23:50.821Z,11.88
2019-06-20T12:26:25.361Z,11.40
2019-06-20T12:28:59.875Z,10.60
2019-06-20T12:31:34.413Z,11.65
2019-06-20T12:34:08.864Z,10.43
2019-06-20T12:36:44.405Z,8.90
2019-06-20T12:39:19.566Z,9.90
2019-06-20T12:41:54.169Z,9.88
2019-06-20T12:44:28.605Z,9.80
2019-06-20T12:47:03.154Z,10.15
2019-06-20T12:49:39.059Z,10.00
2019-06-20T12:52:13.881Z,10.43
2019-06-20T12:54:49.175Z,10.85
2019-06-20T12:57:23.795Z,9.33
2019-06-20T12:59:58.818Z,8.85
2019-06-20T13:02:33.320Z,8.85
2019-06-20T13:05:08.752Z,8.60
2019-06-20T13:07:44.208Z,9.03
2019-06-20T13:10:19.081Z,8.80
2019-06-20T13:12:53.611Z,8.93
2019-06-20T13:15:29.582Z,8.55
2019-06-20T13:18:04.301Z,8.45
2019-06-20T13:20:40.532Z,8.83
2019-06-20T13:23:15.009Z,8.80
2019-06-20T13:25:49.549Z,8.58
2019-06-20T13:28:24.072Z,8.28
2019-06-20T13:30:58.501Z,8.05
2019-06-20T13:33:32.931Z,9.30
2019-06-20T13:36:07.581Z,9.08
2019-06-20T13:38:42.754Z,9.83
2019-06-20T13:41:17.497Z,9.53
2019-06-20T13:43:52.110Z,9.15
2019-06-20T13:46:26.576Z,8.68
2019-06-20T13:49:01.112Z,9.00
2019-06-20T13:51:35.684Z,9.65
2019-06-20T13:54:10.212Z,8.73
2019-06-20T13:56:45.342Z,7.85
2019-06-20T13:59:19.827Z,8.20
2019-06-20T14:02:06.248Z,8.05
2019-06-20T14:04:30.641Z,7.90
2019-06-20T14:07:05.195Z,8.35
2019-06-20T14:09:39.706Z,7.97
2019-06-20T14:12:15.747Z,8.08
2019-06-20T14:14:50.438Z,8.43
2019-06-20T14:17:25.011Z,8.73
2019-06-20T14:19:59.472Z,9.68
2019-06-20T14:22:34.095Z,8.50
2019-06-20T14:25:09.591Z,8.43
2019-06-20T14:27:45.883Z,7.80
2019-06-20T14:30:21.174Z,6.90
2019-06-20T14:32:56.995Z,7.58
2019-06-20T14:35:31.568Z,7.67
2019-06-20T14:38:06.162Z,6.90
2019-06-20T14:40:43.586Z,6.78
2019-06-20T14:43:17.067Z,6.75
2019-06-20T14:45:51.517Z,6.42
2019-06-20T14:48:26.005Z,6.37
2019-06-20T14:51:00.809Z,6.47
2019-06-20T14:53:35.300Z,6.90
2019-06-20T14:56:09.831Z,7.05
2019-06-20T14:58:44.948Z,6.50
2019-06-20T15:01:19.536Z,6.65
2019-06-20T15:03:54.042Z,5.72
2019-06-20T15:06:28.488Z,6.10
2019-06-20T15:09:06.068Z,6.50
2019-06-20T15:11:41.951Z,6.83
2019-06-20T15:14:16.468Z,5.97
2019-06-20T15:16:51.292Z,5.65
2019-06-20T15:19:25.999Z,6.28
2019-06-20T15:22:00.436Z,6.20
2019-06-20T15:24:34.943Z,6.45
2019-06-20T15:27:09.366Z,6.78
2019-06-20T15:29:43.812Z,7.08
2019-06-20T15:32:18.327Z,6.47
2019-06-20T15:34:53.249Z,7.08
2019-06-20T15:37:32.788Z,6.78
2019-06-20T15:40:08.010Z,6.55
2019-06-20T15:42:42.472Z,7.10
2019-06-20T15:45:17.272Z,6.92
2019-06-20T15:47:51.798Z,7.45
2019-06-20T15:50:26.319Z,6.45
2019-06-20T15:53:01.855Z,6.95
2019-06-20T15:55:36.429Z,6.92
2019-06-20T15:58:10.916Z,7.00
2019-06-20T16:00:45.567Z,6.72
2019-06-20T16:03:20.092Z,6.65
2019-06-20T16:05:54.676Z,6.30
2019-06-20T16:08:29.207Z,5.65
2019-06-20T16:11:03.707Z,5.95
2019-06-20T16:13:38.149Z,5.95
2019-06-20T16:16:12.681Z,5.17
2019-06-20T16:18:47.131Z,5.67
2019-06-20T16:21:21.551Z,5.83
2019-06-20T16:23:56.112Z,5.92
2019-06-20T16:26:30.771Z,6.17
2019-06-20T16:29:05.322Z,6.00
2019-06-20T16:31:39.941Z,6.72
2019-06-20T16:34:14.512Z,6.72
2019-06-20T16:36:49.238Z,6.70
2019-06-20T16:39:23.774Z,5.72
2019-06-20T16:41:58.347Z,5.53
2019-06-20T16:44:32.943Z,5.83
2019-06-20T16:47:07.585Z,7.05
2019-06-20T16:49:42.056Z,6.92
2019-06-20T16:52:16.497Z,7.72
2019-06-20T16:54:50.943Z,8.88
2019-06-20T16:57:25.488Z,8.55
2019-06-20T16:59:59.933Z,8.60
2019-06-20T17:02:34.530Z,8.45
2019-06-20T17:05:09.412Z,7.90
2019-06-20T17:07:43.832Z,8.23
2019-06-20T17:10:19.228Z,8.08
2019-06-20T17:12:53.819Z,7.60
2019-06-20T17:15:28.589Z,8.30
2019-06-20T17:18:03.098Z,8.20
2019-06-20T17:20:37.531Z,9.95
2019-06-20T17:23:12.040Z,10.93
2019-06-20T17:25:46.630Z,11.75
2019-06-20T17:28:21.209Z,12.03
2019-06-20T17:30:56.023Z,12.95
2019-06-20T17:33:30.558Z,13.10
2019-06-20T17:36:17.894Z,12.58
2019-06-20T17:38:41.333Z,13.60
2019-06-20T17:41:17.179Z,13.88
2019-06-20T17:43:52.285Z,15.48
2019-06-20T17:46:26.884Z,13.28
2019-06-20T17:49:02.459Z,14.87
2019-06-20T17:51:37.009Z,14.28
2019-06-20T17:54:11.505Z,13.35
2019-06-20T17:56:45.969Z,12.45
2019-06-20T17:59:22.847Z,12.58
2019-06-20T18:01:56.993Z,14.30
2019-06-20T18:04:31.422Z,14.30
2019-06-20T18:07:05.980Z,14.20
2019-06-20T18:09:40.765Z,14.23
2019-06-20T18:12:16.797Z,14.70
2019-06-20T18:14:52.065Z,15.08
2019-06-20T18:17:26.666Z,14.03
2019-06-20T18:20:01.241Z,13.50
2019-06-20T18:22:37.411Z,13.93
2019-06-20T18:25:12.372Z,14.20
2019-06-20T18:27:46.971Z,13.83
2019-06-20T18:30:24.447Z,14.15
2019-06-20T18:32:58.984Z,14.03
2019-06-20T18:35:33.749Z,14.90
2019-06-20T18:38:08.337Z,15.25
2019-06-20T18:40:42.828Z,12.68
2019-06-20T18:43:17.393Z,13.62
2019-06-20T18:45:51.807Z,14.98
2019-06-20T18:48:26.327Z,14.18
2019-06-20T18:51:01.949Z,13.85
2019-06-20T18:53:36.514Z,15.18
2019-06-20T18:56:11.143Z,15.13
2019-06-20T18:58:46.674Z,14.50
2019-06-20T19:01:21.184Z,13.80
2019-06-20T19:03:55.826Z,15.03
2019-06-20T19:06:35.845Z,13.25
2019-06-20T19:09:09.250Z,15.23
2019-06-20T19:11:44.039Z,14.80
2019-06-20T19:14:18.685Z,11.63
2019-06-20T19:16:53.136Z,12.00
2019-06-20T19:19:27.645Z,12.05
2019-06-20T19:22:02.082Z,12.90
2019-06-20T19:24:36.638Z,10.95
2019-06-20T19:27:11.163Z,11.97
2019-06-20T19:29:45.614Z,11.45
2019-06-20T19:32:20.047Z,10.82
2019-06-20T19:35:02.326Z,11.28
2019-06-20T19:37:30.766Z,10.70
2019-06-20T19:40:07.447Z,10.78
2019-06-20T19:42:42.023Z,11.05
2019-06-20T19:45:17.706Z,11.90
2019-06-20T19:47:52.209Z,14.25
2019-06-20T19:50:26.983Z,15.75
2019-06-20T19:53:01.574Z,15.25
2019-06-20T19:55:36.829Z,16.05
2019-06-20T19:58:11.420Z,16.65
2019-06-20T20:00:46.194Z,15.95
2019-06-20T20:03:20.772Z,16.07
2019-06-20T20:05:58.373Z,17.05
2019-06-20T20:08:32.566Z,16.40
2019-06-20T20:11:07.086Z,16.42
2019-06-20T20:13:41.598Z,16.55
2019-06-20T20:16:16.132Z,17.00
2019-06-20T20:18:51.595Z,16.55
2019-06-20T20:21:26.126Z,16.32
2019-06-20T20:24:00.564Z,16.12
2019-06-20T20:26:35.090Z,17.15
2019-06-20T20:29:09.518Z,16.82
2019-06-20T20:31:44.079Z,16.40
2019-06-20T20:34:18.501Z,15.70
2019-06-20T20:36:53.252Z,16.60
2019-06-20T20:39:27.732Z,16.82
2019-06-20T20:42:02.258Z,15.88
2019-06-20T20:44:36.684Z,14.93
2019-06-20T20:47:11.195Z,16.23
2019-06-20T20:49:45.627Z,15.98
2019-06-20T20:52:21.650Z,16.97
2019-06-20T20:54:56.097Z,16.05
2019-06-20T20:57:30.618Z,15.98
2019-06-20T21:00:26.135Z,17.27
2019-06-20T21:03:00.655Z,17.65
2019-06-20T21:05:50.440Z,15.60
2019-06-20T21:08:11.527Z,16.05
2019-06-20T21:10:46.626Z,15.40
2019-06-20T21:13:21.218Z,14.98
2019-06-20T21:15:55.605Z,15.60
2019-06-20T21:18:30.126Z,15.05
2019-06-20T21:21:04.819Z,14.55
2019-06-20T21:23:39.333Z,15.20
2019-06-20T21:26:13.858Z,16.32
2019-06-20T21:28:48.306Z,16.30
2019-06-20T21:31:22.895Z,11.30
2019-06-20T21:33:57.408Z,9.05
2019-06-20T21:36:31.976Z,5.20
2019-06-20T21:39:08.469Z,4.35
2019-06-20T21:41:42.905Z,6.03
2019-06-20T21:44:17.445Z,6.25
2019-06-20T21:46:51.938Z,6.67
2019-06-20T21:49:26.381Z,7.47
2019-06-20T21:52:00.811Z,9.78
2019-06-20T21:54:35.387Z,11.55
2019-06-20T21:57:09.874Z,10.88
2019-06-20T21:59:44.429Z,11.20
2019-06-20T22:02:19.255Z,11.65
2019-06-20T22:04:54.870Z,11.00
2019-06-20T22:07:30.764Z,11.35
2019-06-20T22:10:07.653Z,12.15
2019-06-20T22:12:42.348Z,14.65
2019-06-20T22:15:17.377Z,19.32
2019-06-20T22:17:51.954Z,21.68
2019-06-20T22:20:27.459Z,22.27
2019-06-20T22:23:01.871Z,24.25
2019-06-20T22:25:36.600Z,25.60
2019-06-20T22:28:11.351Z,27.55
2019-06-20T22:30:51.840Z,27.80
2019-06-20T22:33:26.276Z,27.75
2019-06-20T22:36:00.742Z,28.30
2019-06-20T22:38:35.316Z,28.65
2019-06-20T22:41:10.370Z,32.17
2019-06-20T22:43:44.860Z,30.52
2019-06-20T22:46:19.315Z,28.83
2019-06-20T22:48:54.339Z,31.35
2019-06-20T22:51:28.782Z,32.70
2019-06-20T22:54:03.442Z,32.17
2019-06-20T22:56:38.259Z,30.65
2019-06-20T22:59:12.837Z,31.20
2019-06-20T23:01:47.296Z,31.40
2019-06-20T23:04:21.875Z,31.90
2019-06-20T23:06:57.119Z,32.33
2019-06-20T23:09:31.653Z,36.17
2019-06-20T23:12:06.207Z,35.60
2019-06-20T23:14:40.692Z,35.45
2019-06-20T23:17:15.201Z,34.75
2019-06-20T23:19:49.621Z,37.90
2019-06-20T23:22:24.212Z,36.90
2019-06-20T23:24:58.639Z,39.18
2019-06-20T23:27:33.261Z,35.33
2019-06-20T23:30:09.107Z,33.95
2019-06-20T23:32:43.582Z,34.50
2019-06-20T23:35:18.087Z,34.90
2019-06-20T23:37:52.548Z,33.73
2019-06-20T23:40:27.060Z,34.43
2019-06-20T23:43:01.603Z,31.48
2019-06-20T23:45:36.038Z,31.52
2019-06-20T23:48:10.491Z,31.42
2019-06-20T23:50:44.905Z,31.52
2019-06-20T23:53:23.725Z,30.15
2019-06-20T23:55:58.279Z,29.25
2019-06-20T23:58:32.809Z,29.82
